Capetan Vassilis — C6S2085 — position and weather

sailwx.info

Track history (hours):
 
Tides and Currents Weather Stations Pressure Air Temp Water Temp Dewpoint Dewpoint Depression Visibility Wind Speed Wind Dir Waves Ship Positions

Capetan Vassilis

Last reported at 2016-Aug-29 21:28 UTC. Time now 2016-Aug-30 10:58 UTC.
Position N 36°36' E 014°45'.

Length 191 m; draft 11.1 m.

MMSI: 311552000.

Date/timePositionNaut miles runAvg speedWind from/ knotsBaromVisibWave heightAir tempDewpointWater temp
2016-Aug-29 21:28N 36°36' E 014°45'1212.8
2016-Aug-29 20:33N 36°39' E 014°31'1312.8
2016-Aug-29 19:33N 36°42' E 014°15'1313.0
2016-Aug-29 18:33N 36°44' E 013°60'1413.8
2016-Aug-29 17:34N 36°47' E 013°43'1414.0
2016-Aug-29 16:33N 36°50' E 013°26'1413.6
2016-Aug-29 15:33N 36°54' E 013°09'1313.1
2016-Aug-29 14:33N 36°57' E 012°53'1313.1
2016-Aug-29 13:33N 36°59' E 012°37'1513.1
2016-Aug-29 12:22N 37°03' E 012°18'1113.4
2016-Aug-29 11:31N 37°05' E 012°04'6613.4
2016-Aug-29 06:33N 37°28' E 010°46'3213.7
2016-Aug-29 04:13N 37°34' E 010°06'913.9
2016-Aug-29 03:33N 37°33' E 009°55'17513.4
2016-Aug-28 14:28N 37°17' E 006°15'1212.9
2016-Aug-28 13:33N 37°17' E 006°01'1312.9
2016-Aug-28 12:33N 37°17' E 005°44'16213.2
2016-Aug-28 00:15N 36°53' E 002°23'913.2
2016-Aug-27 23:33N 36°52' E 002°12'1313.2
2016-Aug-27 22:33N 36°50' E 001°56'1713.3
2016-Aug-27 21:16N 36°48' E 001°34'913.5
2016-Aug-27 20:34N 36°46' E 001°23'1413.4
2016-Aug-27 19:32N 36°44' E 001°06'1313.2
2016-Aug-27 18:33N 36°43' E 000°50'1313.3
2016-Aug-27 17:33N 36°41' E 000°33'1313.1
2016-Aug-27 16:33N 36°39' E 000°17'2812.6
2016-Aug-27 14:18N 36°35' W 000°18'23513.2
2016-Aug-26 20:26N 36°00' W 005°07'1214.1
2016-Aug-26 19:34N 35°58' W 005°22'1512.4
2016-Aug-26 18:23N 35°54' W 005°39'53812.5
2016-Aug-24 23:18N 31°15' W 014°51'912.0
2016-Aug-24 22:30N 31°10' W 015°00'1212.1
2016-Aug-24 21:29N 31°02' W 015°12'1312.5
2016-Aug-24 20:28N 30°54' W 015°23'1712.4
2016-Aug-24 19:04N 30°43' W 015°39'1912.3
2016-Aug-24 17:33N 30°31' W 015°56'4312.4
2016-Aug-24 14:06N 30°04' W 016°34'912.7
2016-Aug-24 13:23N 29°59' W 016°42'1212.5
2016-Aug-24 12:25N 29°51' W 016°53'1112.5
2016-Aug-24 11:30N 29°44' W 017°04'1212.6
2016-Aug-24 10:34N 29°36' W 017°14'14012.7
2016-Aug-23 23:33N 28°08' W 019°18'  
Track history (hours):
 
Tides and Currents Weather Stations Pressure Air Temp Water Temp Dewpoint Dewpoint Depression Visibility Wind Speed Wind Dir Waves Ship Positions

Capetan Vassilis

Last reported at 2016-Aug-29 21:28 UTC. Time now 2016-Aug-30 10:58 UTC.
Position N 36°36' E 014°45'.

Length 191 m; draft 11.1 m.

MMSI: 311552000.

Date/timePositionNaut miles runAvg speedWind from/ knotsBaromVisibWave heightAir tempDewpointWater temp
2016-Aug-29 21:28N 36°36' E 014°45'1212.8
2016-Aug-29 20:33N 36°39' E 014°31'1312.8
2016-Aug-29 19:33N 36°42' E 014°15'1313.0
2016-Aug-29 18:33N 36°44' E 013°60'1413.8
2016-Aug-29 17:34N 36°47' E 013°43'1414.0
2016-Aug-29 16:33N 36°50' E 013°26'1413.6
2016-Aug-29 15:33N 36°54' E 013°09'1313.1
2016-Aug-29 14:33N 36°57' E 012°53'1313.1
2016-Aug-29 13:33N 36°59' E 012°37'1513.1
2016-Aug-29 12:22N 37°03' E 012°18'1113.4
2016-Aug-29 11:31N 37°05' E 012°04'6613.4
2016-Aug-29 06:33N 37°28' E 010°46'3213.7
2016-Aug-29 04:13N 37°34' E 010°06'913.9
2016-Aug-29 03:33N 37°33' E 009°55'17513.4
2016-Aug-28 14:28N 37°17' E 006°15'1212.9
2016-Aug-28 13:33N 37°17' E 006°01'1312.9
2016-Aug-28 12:33N 37°17' E 005°44'16213.2
2016-Aug-28 00:15N 36°53' E 002°23'913.2
2016-Aug-27 23:33N 36°52' E 002°12'1313.2
2016-Aug-27 22:33N 36°50' E 001°56'1713.3
2016-Aug-27 21:16N 36°48' E 001°34'913.5
2016-Aug-27 20:34N 36°46' E 001°23'1413.4
2016-Aug-27 19:32N 36°44' E 001°06'1313.2
2016-Aug-27 18:33N 36°43' E 000°50'1313.3
2016-Aug-27 17:33N 36°41' E 000°33'1313.1
2016-Aug-27 16:33N 36°39' E 000°17'2812.6
2016-Aug-27 14:18N 36°35' W 000°18'23513.2
2016-Aug-26 20:26N 36°00' W 005°07'1214.1
2016-Aug-26 19:34N 35°58' W 005°22'1512.4
2016-Aug-26 18:23N 35°54' W 005°39'53812.5
2016-Aug-24 23:18N 31°15' W 014°51'912.0
2016-Aug-24 22:30N 31°10' W 015°00'1212.1
2016-Aug-24 21:29N 31°02' W 015°12'1312.5
2016-Aug-24 20:28N 30°54' W 015°23'1712.4
2016-Aug-24 19:04N 30°43' W 015°39'1912.3
2016-Aug-24 17:33N 30°31' W 015°56'4312.4
2016-Aug-24 14:06N 30°04' W 016°34'912.7
2016-Aug-24 13:23N 29°59' W 016°42'1212.5
2016-Aug-24 12:25N 29°51' W 016°53'1112.5
2016-Aug-24 11:30N 29°44' W 017°04'1212.6
2016-Aug-24 10:34N 29°36' W 017°14'14012.7
2016-Aug-23 23:33N 28°08' W 019°18'  

Dump ship's entire track history